Hit Tracker is now ESPN Home Run Tracker! Hit Tracker founder Greg Rybarczyk is now collaborating with the ESPN Stats & Information Group to continue tracking all MLB home runs, and helping baseball fans know "How Far It Really Went!™" Please credit any information on this site to ESPN Stats & Information Group. For more information and analysis on home runs, please contact founder Greg Rybarczyk. E-Mail ESPN Home Run Tracker
Main Page | Ballparks | Park Overlays | Glossary | Highlight Homers | Feedback | Bio | 3 Types of HR's | AAA Home Run Derby Last Updated: May 27, 2016, 11:06 pm PST
If you want to know "How Far It Really Went!", then you've come to the right place! Welcome to the ESPN Home Run Tracker, where you can find accurate, transparently verifiable distances for every home run hit in MLB games. Please also check out the ESPN MLB Scoreboard throughout the 2016 season! Contact us at grybar@hittrackeronline.com.
Season:
Ballpark detail for Nationals Park
Ballpark # of Home Runs HR per game Avg.
True
Distance
Avg.
Speed
Off
Bat
Avg.
Std.
Dist.
Nationals Park 50 2.08 399.3 103.6 397.6

Scatter Plot of Home Runs Nationals Park
 Overlay Ballpark:
Without range rings   With range rings

2016 Season Home Runs for Nationals Park
Click headers to sort
Date Video Path Hitter Hitter
Team
Pitcher Pitcher
Team
INN ^ Ballpark Type/
Luck
True
Dist.
Speed
Off
Bat
Elev.
Angle
Horiz.
Angle
Apex Impact Due To: Std.
Dist.
#
Parks
Wind Temp. Alt.
04/11/16 Video View Murphy, Daniel WSH Norris, Bud ATL 1 Nationals Pa... JE/L 397 96.8 30.9 80.3 89 17 0 0 380 0
04/24/16 Video View den Dekker, Matt WSH Duffey, Tyler MIN 1 Nationals Pa... PL 364 98.4 32.6 60.9 94 0 -1 0 364 30
04/26/16 Video View Blanco, Andres PHI Scherzer, Max WSH 1 Nationals Pa... JE 408 101.6 25.5 85.9 77 2 1 0 406 11
05/09/16 Video View Castellanos, Nick DET Strasburg, Stephen WSH 1 Nationals Pa... JE 382 105.7 23.9 113.4 63 0 -1 0 383 30
05/14/16 Video View Yelich, Christian MIA Strasburg, Stephen WSH 1 Nationals Pa... PL 429 103.5 27.1 87.6 90 6 0 0 423 27
05/25/16 Video View Wright, David NYM Roark, Tanner WSH 1 Nationals Pa... JE 383 106.1 23.0 110.7 60 0 1 0 382 22
04/14/16 Video View Harper, Bryce WSH Teheran, Julio ATL 3 Nationals Pa... ND 429 109.6 25.7 73.3 86 1 -1 0 429 30
05/11/16 Video View Iglesias, Jose DET Scherzer, Max WSH 3 Nationals Pa... JE 354 96.3 33.3 117.7 95 0 -2 0 355 21
05/14/16 Video View Bour, Justin MIA Roark, Tanner WSH 3 Nationals Pa... PL 433 105.5 25.5 93.2 89 3 -1 0 430 26
05/23/16 Video View Wright, David NYM Gonzalez, Gio WSH 3 Nationals Pa... JE 366 97.6 32.6 112.7 99 0 -1 0 367 26
05/27/16 Video View Piscotty, Stephen STL Scherzer, Max WSH 3 Nationals Pa... PL 384 100.6 35.4 114.0 117 8 4 0 372 29
04/13/16 Video View Drew, Stephen WSH Wisler, Matt ATL 4 Nationals Pa... JE 388 99.0 28.6 81.9 96 -3 -2 0 393 18
04/13/16 Video View Werth, Jayson WSH Wisler, Matt ATL 4 Nationals Pa... PL 432 109.6 21.0 94.5 76 3 0 0 429 28
04/14/16 Video View Ramos, Wilson WSH Teheran, Julio ATL 4 Nationals Pa... ND 445 111.6 23.7 100.6 81 0 -1 0 445 30
05/10/16 Video View Castellanos, Nick DET Ross, Joe WSH 4 Nationals Pa... PL 397 100.8 29.4 102.6 98 0 -1 0 398 30
05/15/16 Video View Zimmerman, Ryan WSH Fernandez, Jose MIA 4 Nationals Pa... ITP/L 363 91.8 30.7 77.8 77 14 -1 0 350 0
05/24/16 Video View Cabrera, Asdrubal NYM Strasburg, Stephen WSH 4 Nationals Pa... JE 354 99.7 26.7 57.0 64 0 1 0 353 23
05/24/16 Video View Zimmerman, Ryan WSH Harvey, Matt NYM 4 Nationals Pa... PL 403 103.2 30.1 108.5 100 0 1 0 401 30
05/24/16 Video View Rendon, Anthony WSH Harvey, Matt NYM 4 Nationals Pa... PL 419 109.4 24.8 109.0 76 0 1 0 418 30
05/26/16 Video View Diaz, Aledmys STL Ross, Joe WSH 4 Nationals Pa... PL 411 106.0 23.8 101.4 73 0 1 0 410 30
04/22/16 Video View Werth, Jayson WSH Tonkin, Michael MIN 5 Nationals Pa... PL 399 103.4 27.1 108.3 80 2 0 0 397 30
05/09/16 Video View Martinez, J.D. DET Strasburg, Stephen WSH 5 Nationals Pa... JE 392 109.1 20.6 103.4 54 -1 0 -1 394 16
05/10/16 Video View Zimmerman, Ryan WSH Fulmer, Michael DET 5 Nationals Pa... PL 413 108.2 27.1 108.9 95 -8 -1 0 423 30
05/23/16 Video View Cespedes, Yoenis NYM Gonzalez, Gio WSH 5 Nationals Pa... JE 398 99.3 29.7 85.4 103 0 -1 0 399 8
05/23/16 Video View Walker, Neil NYM Gonzalez, Gio WSH 5 Nationals Pa... JE 362 97.7 34.8 112.5 112 0 -2 0 364 24
05/24/16 Video View Murphy, Daniel WSH Harvey, Matt NYM 5 Nationals Pa... PL 401 104.9 29.5 64.8 92 0 1 0 400 30
05/27/16 Video View Espinosa, Danny WSH Garcia, Jaime STL 5 Nationals Pa... PL 379 109.1 23.1 124.6 56 0 1 0 377 30
05/09/16 Video View Murphy, Daniel WSH Sanchez, Anibal DET 6 Nationals Pa... PL 416 107.6 25.9 71.9 82 1 -1 0 416 30
05/13/16 Video View Drew, Stephen WSH Morris, Bryan MIA 6 Nationals Pa... PL 403 103.4 29.5 71.8 97 0 0 0 403 30
05/14/16 Video View Ramos, Wilson WSH Wittgren, Nick MIA 6 Nationals Pa... JE 398 108.5 19.2 97.0 54 1 0 0 397 2
05/15/16 Video View Stanton, Giancarlo MIA Ross, Joe WSH 6 Nationals Pa... PL 377 97.6 33.7 67.0 100 13 -2 0 365 23
05/26/16 Video View Harper, Bryce WSH Leake, Mike STL 6 Nationals Pa... ND 437 112.8 30.1 61.4 108 -1 3 0 435 30
04/07/16 Video View Harper, Bryce WSH Morris, Bryan MIA 7 Nationals Pa... PL 386 102.3 31.3 63.8 98 2 -3 0 387 30
05/10/16 Video View Zimmerman, Ryan WSH Verhagen, Drew DET 7 Nationals Pa... JE 407 110.6 18.9 97.0 55 2 0 0 405 10
05/11/16 Video View Espinosa, Danny WSH Zimmermann, Jordan DET 7 Nationals Pa... PL 417 105.5 22.7 85.9 75 0 -1 0 417 22
05/13/16 Video View Harper, Bryce WSH Barraclough, Kyle MIA 7 Nationals Pa... PL 410 104.4 28.0 74.2 93 0 0 0 410 30
05/24/16 Video View Revere, Ben WSH Bastardo, Antonio NYM 7 Nationals Pa... JE 384 104.5 25.1 66.5 68 0 0 0 384 30
05/26/16 Video View Espinosa, Danny WSH Leake, Mike STL 7 Nationals Pa... ND 396 104.0 31.3 59.4 94 5 2 0 390 30
04/22/16 Video View Sano, Miguel MIN Rivero, Felipe WSH 8 Nationals Pa... PL 430 103.9 28.1 89.0 101 4 -1 0 427 27
04/24/16 Video View Dozier, Brian MIN Strasburg, Stephen WSH 8 Nationals Pa... ND 409 106.6 30.2 117.8 96 4 0 0 405 30
04/27/16 Video View Ruiz, Carlos PHI Solis, Sammy WSH 8 Nationals Pa... PL 417 107.9 26.3 108.1 86 0 -2 0 419 30
05/13/16 Video View Heisey, Chris WSH McGowan, Dustin MIA 8 Nationals Pa... PL 411 102.8 29.3 100.6 103 0 0 0 411 30
05/24/16 Video View Ramos, Wilson WSH Henderson, Jim NYM 8 Nationals Pa... PL 398 100.1 30.3 100.3 103 0 1 0 397 26
05/27/16 Video View Garcia, Greg STL Petit, Yusmeiro WSH 8 Nationals Pa... JE 396 99.6 27.7 98.7 88 0 1 0 394 11
04/10/16 Video View Yelich, Christian MIA Papelbon, Jonathan WSH 9 Nationals Pa... PL 399 101.0 31.4 69.1 98 15 -4 0 387 29
04/24/16 Video View Harper, Bryce WSH Jepsen, Kevin MIN 9 Nationals Pa... PL 413 101.3 30.3 87.0 108 3 0 0 410 20
05/09/16 Video View Robinson, Clint WSH Lowe, Mark DET 9 Nationals Pa... JE/L 377 98.6 34.6 73.9 119 4 -2 0 375 20
05/11/16 Video View Martinez, J.D. DET Scherzer, Max WSH 9 Nationals Pa... PL 421 103.8 29.4 95.8 111 0 -2 0 422 29
05/24/16 Video View Campbell, Eric NYM Kelley, Shawn WSH 9 Nationals Pa... JE 353 101.9 25.1 124.9 58 0 0 0 353 21
04/24/16 Video View Heisey, Chris WSH Tonkin, Michael MIN 16 Nationals Pa... PL 427 107.3 25.3 100.9 86 0 0 0 427 30


About HitTracker | Contact Us
© 2006-2016 HitTrackerOnline